Time;durP1;ratioP1;P1;durP2;ratioP2;P2;SDS_P1;SDS_P2;PMS_P1;PMS_P2;Temp;Humidity;BMP_temperature;BMP_pressure;BME280_temperature;BME280_humidity;BME280_pressure;Samples;Min_cycle;Max_cycle;Signal;HPM_P1;HPM_P2
2023/08/02 00:02:11;;;;;;;3.00;1.52;;;15.90;99.90;;;;;;5132147;27;20055;-80
2023/08/02 00:04:37;;;;;;;3.70;1.50;;;15.90;99.90;;;;;;5138079;27;20367;-80
2023/08/02 00:07:03;;;;;;;2.20;1.10;;;16.00;99.90;;;;;;5138670;27;20038;-80
2023/08/02 00:09:29;;;;;;;4.68;1.40;;;15.90;99.90;;;;;;5136945;27;20113;-80
2023/08/02 00:11:54;;;;;;;5.45;1.30;;;15.90;99.90;;;;;;5136371;27;20161;-80
2023/08/02 00:14:20;;;;;;;7.50;1.75;;;15.90;99.90;;;;;;5137421;27;20046;-80
2023/08/02 00:16:45;;;;;;;4.95;1.75;;;15.90;99.90;;;;;;5135466;27;20068;-80
2023/08/02 00:19:11;;;;;;;4.43;1.60;;;15.90;99.90;;;;;;5131787;27;20501;-80
2023/08/02 00:21:37;;;;;;;4.80;1.30;;;15.90;99.90;;;;;;5132385;27;20469;-80
2023/08/02 00:24:03;;;;;;;4.70;1.42;;;15.90;99.90;;;;;;5115657;27;20055;-80
2023/08/02 00:26:28;;;;;;;4.18;1.50;;;15.90;99.90;;;;;;5117273;27;20035;-80
2023/08/02 00:28:54;;;;;;;6.65;1.80;;;15.90;99.90;;;;;;5142997;27;20439;-80
2023/08/02 00:31:19;;;;;;;3.97;1.67;;;15.90;99.90;;;;;;5138051;27;20049;-80
2023/08/02 00:33:45;;;;;;;9.35;2.20;;;15.90;99.90;;;;;;5131895;27;20035;-80
2023/08/02 00:36:11;;;;;;;4.90;1.55;;;15.90;99.90;;;;;;5131769;27;20035;-81
2023/08/02 00:38:37;;;;;;;8.40;2.00;;;15.90;99.90;;;;;;5115087;27;20125;-80
2023/08/02 00:41:06;;;;;;;4.55;1.95;;;15.90;99.90;;;;;;5130994;27;20035;-80
2023/08/02 00:43:40;;;;;;;8.52;1.90;;;15.80;99.90;;;;;;5142822;27;20084;-80
2023/08/02 00:46:07;;;;;;;8.93;2.17;;;15.80;99.90;;;;;;5131330;27;20047;-80
2023/08/02 00:48:34;;;;;;;11.30;2.70;;;15.90;99.90;;;;;;5133882;27;20071;-80
2023/08/02 00:51:01;;;;;;;4.60;1.50;;;15.90;99.90;;;;;;5131420;27;20035;-80
2023/08/02 00:53:26;;;;;;;5.82;2.05;;;15.80;99.90;;;;;;5131537;27;20075;-80
2023/08/02 00:55:52;;;;;;;6.03;2.47;;;15.80;99.90;;;;;;5134842;27;20069;-81
2023/08/02 00:58:18;;;;;;;7.65;2.42;;;15.70;99.90;;;;;;5136545;27;20049;-81
2023/08/02 01:00:43;;;;;;;11.90;2.95;;;15.90;99.90;;;;;;5131424;27;20397;-81
2023/08/02 01:03:09;;;;;;;8.68;2.70;;;15.80;99.90;;;;;;5111850;27;20163;-80
2023/08/02 01:05:40;;;;;;;8.32;2.70;;;15.90;99.90;;;;;;5132002;27;20046;-81
2023/08/02 01:08:11;;;;;;;7.82;2.95;;;15.80;99.90;;;;;;5132476;27;20074;-80
2023/08/02 01:10:48;;;;;;;6.82;2.90;;;15.90;99.90;;;;;;5131510;27;20027;-80
2023/08/02 01:13:16;;;;;;;7.53;2.70;;;15.80;99.90;;;;;;5130903;27;20039;-81
2023/08/02 01:15:42;;;;;;;7.97;2.78;;;15.70;99.90;;;;;;5131107;27;20046;-81
2023/08/02 01:18:09;;;;;;;8.40;3.38;;;15.70;99.90;;;;;;5132673;27;20035;-81
2023/08/02 01:20:35;;;;;;;8.60;3.05;;;15.70;99.90;;;;;;5131794;27;20035;-81
2023/08/02 01:23:00;;;;;;;6.25;2.97;;;15.70;99.90;;;;;;5130343;27;20042;-81
2023/08/02 01:25:27;;;;;;;9.75;3.83;;;15.70;99.90;;;;;;5142103;27;20030;-81
2023/08/02 01:28:07;;;;;;;7.90;3.45;;;15.70;99.90;;;;;;5134782;27;20437;-81
2023/08/02 01:30:38;;;;;;;11.23;3.65;;;15.70;99.90;;;;;;5127438;27;20048;-80
2023/08/02 01:33:05;;;;;;;7.97;2.70;;;15.70;99.90;;;;;;5131345;27;20082;-81
2023/08/02 01:35:32;;;;;;;11.77;3.60;;;15.70;99.90;;;;;;5134457;27;20070;-80
2023/08/02 01:37:58;;;;;;;7.70;3.97;;;15.60;99.90;;;;;;5132643;27;20034;-81
2023/08/02 01:40:24;;;;;;;9.50;3.40;;;15.60;99.90;;;;;;5130708;27;20039;-80
2023/08/02 01:42:50;;;;;;;8.30;3.65;;;15.60;99.90;;;;;;5131240;27;20039;-81
2023/08/02 01:45:15;;;;;;;7.78;3.67;;;15.50;99.90;;;;;;5136963;27;20437;-81
2023/08/02 01:47:41;;;;;;;9.60;4.90;;;15.60;99.90;;;;;;5130809;27;20027;-81
2023/08/02 01:50:07;;;;;;;9.30;4.18;;;15.60;99.90;;;;;;5130068;27;20609;-81
2023/08/02 01:52:32;;;;;;;10.57;3.95;;;15.60;99.90;;;;;;5129958;27;20046;-81
2023/08/02 01:54:58;;;;;;;6.65;3.33;;;15.60;99.90;;;;;;5137501;27;20093;-80
2023/08/02 01:57:24;;;;;;;8.68;4.10;;;15.50;99.90;;;;;;5130574;27;20118;-81
2023/08/02 01:59:49;;;;;;;7.53;3.90;;;15.60;99.90;;;;;;5129622;27;20496;-80
2023/08/02 02:02:16;;;;;;;9.65;3.90;;;15.60;99.90;;;;;;5129893;27;20051;-81
2023/08/02 02:04:42;;;;;;;8.13;3.35;;;15.60;99.90;;;;;;5133946;27;20038;-81
2023/08/02 02:07:08;;;;;;;8.38;3.05;;;15.50;99.90;;;;;;5111028;27;20043;-81
2023/08/02 02:09:33;;;;;;;12.15;4.40;;;15.50;99.90;;;;;;5130754;27;20091;-81
2023/08/02 02:11:59;;;;;;;11.50;3.80;;;15.50;99.90;;;;;;5112166;27;20122;-81
2023/08/02 02:14:24;;;;;;;16.52;3.95;;;15.60;99.90;;;;;;5129008;27;20545;-81
2023/08/02 02:16:50;;;;;;;7.70;3.47;;;15.60;99.90;;;;;;5145454;27;20371;-81
2023/08/02 02:19:16;;;;;;;9.45;3.92;;;15.60;99.90;;;;;;5132433;27;20041;-81
2023/08/02 02:21:41;;;;;;;12.43;4.05;;;15.50;99.90;;;;;;5132531;27;20065;-81
2023/08/02 02:24:07;;;;;;;7.25;3.53;;;15.50;99.90;;;;;;5129473;27;20059;-80
2023/08/02 02:26:32;;;;;;;9.90;4.18;;;15.50;99.90;;;;;;5135306;27;20031;-81
2023/08/02 02:28:58;;;;;;;11.23;4.30;;;15.60;99.90;;;;;;5135469;27;20414;-81
2023/08/02 02:31:24;;;;;;;12.23;3.63;;;15.60;99.90;;;;;;5130551;27;20508;-81
2023/08/02 02:33:49;;;;;;;11.93;4.22;;;15.50;99.90;;;;;;5112955;27;20042;-81
2023/08/02 02:36:15;;;;;;;9.30;3.80;;;15.50;99.90;;;;;;5131885;27;20086;-80
2023/08/02 02:38:40;;;;;;;11.48;4.45;;;15.50;99.90;;;;;;5137386;27;20034;-80
2023/08/02 02:41:06;;;;;;;11.82;3.58;;;15.50;99.90;;;;;;5129480;27;20039;-81
2023/08/02 02:43:31;;;;;;;9.25;3.90;;;15.50;99.90;;;;;;5130260;27;20039;-81
2023/08/02 02:45:57;;;;;;;10.57;3.95;;;15.60;99.90;;;;;;5133564;27;20035;-81
2023/08/02 02:48:23;;;;;;;12.10;4.47;;;15.50;99.90;;;;;;5132674;27;20456;-81
2023/08/02 02:50:48;;;;;;;14.07;4.45;;;15.50;99.90;;;;;;5129699;27;20375;-81
2023/08/02 02:53:16;;;;;;;8.70;4.18;;;15.50;99.90;;;;;;5111265;27;20039;-81
2023/08/02 02:55:42;;;;;;;7.90;2.97;;;15.50;99.90;;;;;;5133428;27;20043;-81
2023/08/02 02:58:07;;;;;;;14.00;3.25;;;15.50;99.90;;;;;;5116349;27;20042;-81
2023/08/02 03:00:33;;;;;;;10.43;3.40;;;15.50;99.90;;;;;;5111538;27;20050;-81
2023/08/02 03:02:59;;;;;;;12.70;4.20;;;15.50;99.90;;;;;;5133976;27;20045;-81
2023/08/02 03:05:24;;;;;;;14.60;4.75;;;15.50;99.90;;;;;;5128833;27;20409;-81
2023/08/02 03:07:50;;;;;;;13.40;4.97;;;15.50;99.90;;;;;;5129936;27;20348;-81
2023/08/02 03:10:15;;;;;;;13.27;3.97;;;15.50;99.90;;;;;;5130101;27;20087;-81
2023/08/02 03:12:41;;;;;;;8.00;3.70;;;15.50;99.90;;;;;;5129621;27;20035;-81
2023/08/02 03:15:07;;;;;;;8.88;3.58;;;15.50;99.90;;;;;;5131623;27;20049;-81
2023/08/02 03:17:33;;;;;;;13.80;4.32;;;15.50;99.90;;;;;;5135724;27;20027;-81
2023/08/02 03:19:59;;;;;;;13.15;4.15;;;15.50;99.90;;;;;;5130871;27;20500;-81
2023/08/02 03:22:24;;;;;;;10.40;4.43;;;15.50;99.90;;;;;;5133039;27;20030;-81
2023/08/02 03:24:50;;;;;;;17.17;4.68;;;15.50;99.90;;;;;;5130472;27;20513;-81
2023/08/02 03:27:16;;;;;;;20.13;5.50;;;15.40;99.90;;;;;;5132100;27;20092;-81
2023/08/02 03:29:41;;;;;;;15.35;5.07;;;15.50;99.90;;;;;;5139093;27;20078;-81
2023/08/02 03:32:07;;;;;;;14.00;4.30;;;15.50;99.90;;;;;;5138695;27;20035;-81
2023/08/02 03:34:33;;;;;;;12.43;4.50;;;15.50;99.90;;;;;;5137945;27;20033;-81
2023/08/02 03:36:58;;;;;;;12.73;4.70;;;15.40;99.90;;;;;;5137330;27;20027;-81
2023/08/02 03:39:27;;;;;;;13.85;5.63;;;15.40;99.90;;;;;;5133012;27;20478;-81
2023/08/02 03:41:54;;;;;;;11.50;4.97;;;15.40;99.90;;;;;;5140737;27;20038;-81
2023/08/02 03:44:20;;;;;;;17.38;5.72;;;15.40;99.90;;;;;;5138719;27;20035;-81
2023/08/02 03:46:46;;;;;;;18.27;6.07;;;15.40;99.90;;;;;;5145271;27;20446;-81
2023/08/02 03:49:11;;;;;;;18.38;5.95;;;15.40;99.90;;;;;;5137258;27;20041;-81
2023/08/02 03:51:37;;;;;;;15.70;6.13;;;15.40;99.90;;;;;;5137759;27;20401;-81
2023/08/02 03:54:04;;;;;;;20.83;6.78;;;15.40;99.90;;;;;;5124184;27;20481;-81
2023/08/02 03:56:30;;;;;;;19.23;5.93;;;15.30;99.90;;;;;;5139558;27;20065;-81
2023/08/02 03:58:56;;;;;;;14.07;6.10;;;15.30;99.90;;;;;;5143845;27;20046;-81
2023/08/02 04:01:21;;;;;;;14.32;5.75;;;15.30;99.90;;;;;;5121919;27;20031;-81
2023/08/02 04:03:47;;;;;;;14.20;6.35;;;15.40;99.90;;;;;;5135716;27;20043;-81
2023/08/02 04:06:13;;;;;;;17.20;6.53;;;15.40;99.90;;;;;;5133647;27;20382;-81
2023/08/02 04:08:38;;;;;;;19.50;6.70;;;15.30;99.90;;;;;;5134593;27;20381;-81
2023/08/02 04:11:05;;;;;;;16.63;6.63;;;15.30;99.90;;;;;;5118827;27;20047;-81
2023/08/02 04:13:31;;;;;;;22.80;6.82;;;15.30;99.90;;;;;;5139621;27;20050;-81
2023/08/02 04:15:57;;;;;;;21.40;7.15;;;15.30;99.90;;;;;;5126018;27;20043;-80
2023/08/02 04:18:22;;;;;;;20.10;6.18;;;15.20;99.90;;;;;;5133279;27;20038;-81
2023/08/02 04:20:48;;;;;;;12.45;5.95;;;15.20;99.90;;;;;;5131738;27;20031;-81
2023/08/02 04:23:13;;;;;;;16.30;6.10;;;15.30;99.90;;;;;;5116159;27;20047;-81
2023/08/02 04:25:39;;;;;;;15.90;6.47;;;15.20;99.90;;;;;;5119623;27;20062;-81
2023/08/02 04:28:05;;;;;;;19.67;7.07;;;15.20;99.90;;;;;;5126091;27;20136;-81
2023/08/02 04:30:31;;;;;;;17.15;6.93;;;15.20;99.90;;;;;;5141058;27;20053;-81
2023/08/02 04:32:57;;;;;;;23.00;7.07;;;15.20;99.90;;;;;;5134587;27;20031;-81
2023/08/02 04:35:22;;;;;;;16.25;6.60;;;15.20;99.90;;;;;;5114446;27;20504;-81
2023/08/02 04:37:48;;;;;;;14.55;6.28;;;15.30;99.90;;;;;;5131364;27;20393;-81
2023/08/02 04:40:14;;;;;;;13.25;6.75;;;15.20;99.90;;;;;;5130328;27;20046;-81
2023/08/02 04:42:40;;;;;;;16.13;6.80;;;15.20;99.90;;;;;;5133467;27;20091;-81
2023/08/02 04:45:06;;;;;;;12.10;6.03;;;15.20;99.90;;;;;;5138273;27;20039;-81
2023/08/02 04:47:32;;;;;;;19.30;6.90;;;15.20;99.90;;;;;;5134916;27;20106;-81
2023/08/02 04:49:57;;;;;;;17.48;6.65;;;15.20;99.90;;;;;;5138803;27;20117;-81
2023/08/02 04:52:23;;;;;;;19.65;6.90;;;15.20;99.90;;;;;;5138764;27;20031;-81
2023/08/02 04:54:49;;;;;;;17.35;6.82;;;15.10;99.90;;;;;;5131833;27;20030;-81
2023/08/02 04:57:14;;;;;;;18.85;6.88;;;15.10;99.90;;;;;;5125551;27;20389;-81
2023/08/02 04:59:40;;;;;;;14.65;5.95;;;15.10;99.90;;;;;;5114963;27;20031;-81
2023/08/02 05:02:05;;;;;;;15.95;6.72;;;15.10;99.90;;;;;;5134727;27;20055;-81
2023/08/02 05:04:31;;;;;;;12.75;6.35;;;15.10;99.90;;;;;;5123248;27;20415;-82
2023/08/02 05:06:57;;;;;;;16.38;6.75;;;15.10;99.90;;;;;;5130874;27;20035;-82
2023/08/02 05:09:22;;;;;;;19.80;7.13;;;15.00;99.90;;;;;;5131015;27;20063;-82
2023/08/02 05:11:49;;;;;;;11.93;6.10;;;15.20;99.90;;;;;;5123418;27;20043;-81
2023/08/02 05:14:14;;;;;;;17.50;7.72;;;15.10;99.90;;;;;;5115325;27;20053;-82
2023/08/02 05:16:40;;;;;;;16.60;6.85;;;15.10;99.90;;;;;;5131951;27;20050;-82
2023/08/02 05:19:06;;;;;;;14.85;5.75;;;15.10;99.90;;;;;;5136791;27;20122;-81
2023/08/02 05:21:31;;;;;;;12.80;6.30;;;15.10;99.90;;;;;;5139677;27;20123;-81
2023/08/02 05:23:57;;;;;;;16.58;7.28;;;15.10;99.90;;;;;;5133552;27;20039;-81
2023/08/02 05:26:23;;;;;;;19.90;6.57;;;15.10;99.90;;;;;;5142289;27;20043;-80
2023/08/02 05:28:48;;;;;;;14.43;6.20;;;15.10;99.90;;;;;;5132056;27;20140;-79
2023/08/02 05:31:14;;;;;;;16.88;7.05;;;15.10;99.90;;;;;;5135798;27;20121;-79
2023/08/02 05:33:40;;;;;;;14.45;6.22;;;15.10;99.90;;;;;;5137243;27;20039;-80
2023/08/02 05:36:06;;;;;;;15.10;6.45;;;15.10;99.90;;;;;;5137206;27;20501;-80
2023/08/02 05:38:38;;;;;;;16.50;7.20;;;15.20;99.90;;;;;;5141421;27;20549;-80
2023/08/02 05:41:03;;;;;;;23.48;7.85;;;15.20;99.90;;;;;;5133416;27;20054;-80
2023/08/02 05:43:30;;;;;;;11.90;6.55;;;15.20;99.90;;;;;;5136053;27;20473;-80
2023/08/02 05:45:56;;;;;;;14.38;6.40;;;15.20;99.90;;;;;;5136787;27;20043;-80
2023/08/02 05:48:22;;;;;;;14.88;6.25;;;15.20;99.90;;;;;;5126909;27;20477;-80
2023/08/02 05:50:48;;;;;;;15.90;6.60;;;15.30;99.90;;;;;;5136762;27;20056;-80
2023/08/02 05:53:13;;;;;;;9.00;4.43;;;15.30;99.90;;;;;;5134930;27;20084;-80
2023/08/02 05:55:40;;;;;;;13.45;6.30;;;15.40;99.90;;;;;;5130414;27;20030;-80
2023/08/02 05:58:05;;;;;;;15.32;6.50;;;15.40;99.90;;;;;;5130324;27;20035;-80
2023/08/02 06:00:31;;;;;;;17.02;6.40;;;15.40;99.90;;;;;;5129900;27;20042;-80
2023/08/02 06:02:56;;;;;;;14.32;7.40;;;15.50;99.90;;;;;;5113814;27;20127;-80
2023/08/02 06:05:22;;;;;;;14.45;7.15;;;15.50;99.90;;;;;;5135209;27;20042;-80
2023/08/02 06:07:48;;;;;;;15.77;7.70;;;15.50;99.90;;;;;;5136458;27;20031;-80
2023/08/02 06:10:13;;;;;;;11.23;6.50;;;15.50;99.90;;;;;;5113067;27;20043;-80
2023/08/02 06:12:39;;;;;;;16.50;7.72;;;15.50;99.90;;;;;;5117922;27;20123;-80
2023/08/02 06:15:05;;;;;;;17.00;6.97;;;15.60;99.90;;;;;;5129242;27;20077;-80
2023/08/02 06:17:31;;;;;;;17.25;8.32;;;15.60;99.90;;;;;;5129880;27;20067;-80
2023/08/02 06:19:56;;;;;;;13.90;8.30;;;15.70;99.90;;;;;;5130177;27;20062;-80
2023/08/02 06:22:22;;;;;;;11.80;7.07;;;15.70;99.90;;;;;;5135722;27;20530;-80
2023/08/02 06:24:47;;;;;;;15.05;7.97;;;15.70;99.90;;;;;;5112798;27;20039;-80
2023/08/02 06:27:13;;;;;;;16.17;7.78;;;15.80;99.90;;;;;;5135572;27;20417;-80
2023/08/02 06:29:39;;;;;;;16.02;8.00;;;15.80;99.90;;;;;;5111127;27;20041;-80
2023/08/02 06:32:05;;;;;;;15.43;8.32;;;15.90;99.90;;;;;;5131976;27;20078;-80
2023/08/02 06:34:31;;;;;;;12.52;7.30;;;15.90;99.90;;;;;;5113326;27;20050;-80
2023/08/02 06:36:56;;;;;;;14.15;7.80;;;16.00;99.90;;;;;;5129796;27;20035;-80
2023/08/02 06:39:22;;;;;;;12.43;7.22;;;16.00;99.90;;;;;;5129964;27;20108;-80
2023/08/02 06:41:47;;;;;;;16.15;7.90;;;16.00;99.90;;;;;;5137553;27;20122;-80
2023/08/02 06:44:13;;;;;;;14.48;7.80;;;16.10;99.90;;;;;;5137777;27;20042;-80
2023/08/02 06:46:40;;;;;;;13.98;7.32;;;16.10;99.90;;;;;;5129752;27;20035;-80
2023/08/02 06:49:06;;;;;;;15.35;8.20;;;16.10;99.90;;;;;;5129823;27;20118;-80
2023/08/02 06:51:31;;;;;;;12.95;8.10;;;16.10;99.90;;;;;;5136596;27;20156;-80
2023/08/02 06:53:57;;;;;;;12.82;8.13;;;16.10;99.90;;;;;;5136667;27;20385;-80
2023/08/02 06:56:24;;;;;;;17.45;7.10;;;16.20;99.90;;;;;;5129569;27;20111;-80
2023/08/02 06:58:49;;;;;;;14.45;7.50;;;16.20;99.90;;;;;;5134473;27;20057;-80
2023/08/02 07:01:18;;;;;;;12.15;6.32;;;16.20;99.90;;;;;;5132151;27;20047;-80
2023/08/02 07:03:44;;;;;;;14.27;6.35;;;16.30;99.90;;;;;;5120670;27;20481;-80
2023/08/02 07:06:18;;;;;;;14.05;6.45;;;16.30;99.90;;;;;;5120009;27;20083;-80
2023/08/02 07:08:44;;;;;;;16.30;5.93;;;16.30;99.90;;;;;;5127117;27;20042;-80
2023/08/02 07:11:10;;;;;;;9.25;4.47;;;16.40;99.90;;;;;;5115565;27;20150;-80
2023/08/02 07:13:37;;;;;;;10.27;4.72;;;16.40;99.90;;;;;;5115457;27;20118;-80
2023/08/02 07:16:04;;;;;;;12.45;6.15;;;16.40;99.90;;;;;;5133247;27;20176;-80
2023/08/02 07:18:30;;;;;;;11.82;5.30;;;16.50;99.90;;;;;;5139618;27;20077;-80
2023/08/02 07:20:56;;;;;;;11.65;5.55;;;16.50;99.90;;;;;;5132877;27;20071;-80
2023/08/02 07:23:22;;;;;;;13.13;5.85;;;16.50;99.90;;;;;;5138891;27;20538;-80
2023/08/02 07:25:48;;;;;;;11.63;5.53;;;16.40;99.90;;;;;;5144169;27;20027;-80
2023/08/02 07:28:14;;;;;;;14.50;5.07;;;16.40;99.90;;;;;;5133573;27;20039;-80
2023/08/02 07:30:39;;;;;;;12.95;5.35;;;16.40;99.90;;;;;;5133316;27;20039;-80
2023/08/02 07:33:05;;;;;;;12.57;5.22;;;16.40;99.90;;;;;;5134433;27;20043;-80
2023/08/02 07:35:36;;;;;;;10.93;5.47;;;16.30;99.90;;;;;;5136264;27;20046;-80
2023/08/02 07:38:02;;;;;;;13.63;5.57;;;16.30;99.90;;;;;;5134541;27;20035;-80
2023/08/02 07:40:28;;;;;;;10.30;5.18;;;16.30;99.90;;;;;;5116480;27;20042;-80
2023/08/02 07:42:54;;;;;;;10.52;4.75;;;16.30;99.90;;;;;;5132954;27;20042;-80
2023/08/02 07:45:19;;;;;;;13.18;5.10;;;16.30;99.90;;;;;;5133215;27;20837;-80
2023/08/02 07:47:45;;;;;;;12.73;5.03;;;16.30;99.90;;;;;;5133094;27;20027;-79
2023/08/02 07:50:11;;;;;;;10.93;4.13;;;16.30;99.90;;;;;;5132768;27;20082;-80
2023/08/02 07:52:36;;;;;;;9.80;4.57;;;16.30;99.90;;;;;;5139786;27;20379;-80
2023/08/02 07:55:02;;;;;;;10.50;4.25;;;16.30;99.90;;;;;;5132047;27;20076;-80
2023/08/02 07:57:32;;;;;;;12.10;4.55;;;16.40;99.90;;;;;;5135117;27;20027;-80
2023/08/02 07:59:58;;;;;;;11.35;4.43;;;16.30;99.90;;;;;;5132606;27;20035;-84
2023/08/02 08:02:27;;;;;;;9.57;4.50;;;16.40;99.90;;;;;;5113618;27;20456;-80
2023/08/02 08:04:56;;;;;;;10.50;3.85;;;16.40;99.90;;;;;;5114209;27;20036;-80
2023/08/02 08:07:22;;;;;;;7.85;3.75;;;16.30;99.90;;;;;;5126055;27;20047;-80
2023/08/02 08:09:50;;;;;;;9.63;4.05;;;16.30;99.90;;;;;;5119421;27;20042;-80
2023/08/02 08:12:16;;;;;;;8.32;3.85;;;16.30;99.90;;;;;;5123809;27;20039;-80
2023/08/02 08:14:42;;;;;;;7.88;4.18;;;16.30;99.90;;;;;;5119000;27;20038;-80
2023/08/02 08:17:08;;;;;;;11.40;3.55;;;16.20;99.90;;;;;;5116823;27;20050;-80
2023/08/02 08:19:34;;;;;;;8.93;3.40;;;16.20;99.90;;;;;;5114834;27;20031;-80
2023/08/02 08:21:59;;;;;;;10.25;3.50;;;16.20;99.90;;;;;;5120723;27;20033;-80
2023/08/02 08:24:25;;;;;;;11.15;4.18;;;16.20;99.90;;;;;;5115628;27;20035;-80
2023/08/02 08:26:53;;;;;;;8.32;3.97;;;16.20;99.90;;;;;;5119546;27;20037;-80
2023/08/02 08:29:18;;;;;;;11.45;3.40;;;16.10;99.90;;;;;;5117688;27;20132;-80
2023/08/02 08:31:44;;;;;;;8.90;3.78;;;16.10;99.90;;;;;;5119449;27;20344;-80
2023/08/02 08:34:10;;;;;;;11.80;3.83;;;16.20;99.90;;;;;;5120026;27;20039;-80
2023/08/02 08:36:36;;;;;;;9.05;4.38;;;16.20;99.90;;;;;;5116727;27;20505;-80
2023/08/02 08:39:02;;;;;;;11.48;4.03;;;16.10;99.90;;;;;;5117194;27;20097;-80
2023/08/02 08:41:28;;;;;;;10.52;3.92;;;16.10;99.90;;;;;;5120724;27;20043;-80
2023/08/02 08:43:54;;;;;;;11.48;4.10;;;16.10;99.90;;;;;;5116324;27;20039;-80
2023/08/02 08:46:20;;;;;;;11.77;4.22;;;16.10;99.90;;;;;;5115065;27;20028;-80
2023/08/02 08:48:48;;;;;;;9.70;4.22;;;16.10;99.90;;;;;;5113822;27;20043;-80
2023/08/02 08:51:16;;;;;;;10.93;4.43;;;16.10;99.90;;;;;;5117088;27;20031;-80
2023/08/02 08:53:44;;;;;;;10.43;4.65;;;16.10;99.90;;;;;;5118142;27;20043;-80
2023/08/02 08:56:10;;;;;;;10.65;4.47;;;16.10;99.90;;;;;;5108797;27;20039;-80
2023/08/02 08:58:37;;;;;;;15.13;5.20;;;16.10;99.90;;;;;;5117040;27;20043;-80
2023/08/02 09:01:04;;;;;;;8.88;3.75;;;16.10;99.90;;;;;;5119437;27;20087;-80
2023/08/02 09:03:30;;;;;;;11.60;4.07;;;16.10;99.90;;;;;;5136087;27;20493;-80
2023/08/02 09:06:00;;;;;;;8.00;3.67;;;16.10;99.90;;;;;;5127119;27;20167;-80
2023/08/02 09:08:27;;;;;;;9.27;3.90;;;16.00;99.90;;;;;;5142556;27;20377;-80
2023/08/02 09:10:53;;;;;;;9.27;3.80;;;16.10;99.90;;;;;;5133609;27;20477;-80
2023/08/02 09:13:26;;;;;;;12.27;4.60;;;16.10;99.90;;;;;;5137770;27;20481;-80
2023/08/02 09:16:13;;;;;;;11.43;3.83;;;16.10;99.90;;;;;;5118644;27;20054;-80
2023/08/02 09:18:46;;;;;;;7.45;3.47;;;16.20;99.90;;;;;;5136908;27;20556;-80
2023/08/02 09:21:20;;;;;;;9.32;3.78;;;16.10;99.90;;;;;;5120431;27;20102;-80
2023/08/02 09:23:58;;;;;;;9.40;4.13;;;16.20;99.90;;;;;;5139525;27;20039;-80
2023/08/02 09:26:24;;;;;;;11.95;4.55;;;16.30;99.90;;;;;;5134876;27;20341;-79
2023/08/02 09:29:07;;;;;;;7.55;3.72;;;16.30;99.90;;;;;;5136782;27;20039;-79
2023/08/02 09:31:36;;;;;;;9.18;3.92;;;16.40;99.90;;;;;;5135825;27;20094;-80
2023/08/02 09:34:02;;;;;;;9.23;4.22;;;16.40;99.90;;;;;;5130950;27;20042;-79
2023/08/02 09:36:30;;;;;;;10.82;4.65;;;16.40;99.90;;;;;;5135861;27;20481;-80
2023/08/02 09:38:58;;;;;;;12.15;4.40;;;16.50;99.90;;;;;;5141203;27;20043;-80
2023/08/02 09:41:28;;;;;;;13.50;4.90;;;16.50;99.90;;;;;;5136065;27;20031;-80
2023/08/02 09:43:53;;;;;;;14.25;5.78;;;16.50;99.90;;;;;;5133598;27;20393;-79
2023/08/02 09:46:31;;;;;;;9.68;4.85;;;16.50;99.90;;;;;;5138126;27;20027;-79
2023/08/02 09:48:57;;;;;;;10.02;4.78;;;16.60;99.90;;;;;;5133373;27;20166;-80
2023/08/02 09:51:44;;;;;;;11.98;5.75;;;16.60;99.90;;;;;;5136546;27;20050;-80
2023/08/02 09:54:12;;;;;;;15.35;5.63;;;16.60;99.90;;;;;;5138151;27;20122;-79
2023/08/02 09:56:39;;;;;;;9.48;5.53;;;16.60;99.90;;;;;;5137900;27;20165;-80
2023/08/02 09:59:06;;;;;;;13.75;5.47;;;16.60;99.90;;;;;;5140971;27;20042;-80
2023/08/02 10:01:34;;;;;;;8.73;4.78;;;16.70;99.90;;;;;;5132651;27;20043;-80
2023/08/02 10:04:06;;;;;;;10.23;4.88;;;16.70;99.90;;;;;;5139262;27;20122;-80
2023/08/02 10:06:38;;;;;;;9.50;5.45;;;16.70;99.90;;;;;;5131929;27;20122;-80
2023/08/02 10:09:07;;;;;;;8.75;5.32;;;16.70;99.90;;;;;;5136886;27;20062;-80
2023/08/02 10:11:43;;;;;;;9.95;5.60;;;16.70;99.90;;;;;;5134290;27;20034;-80
2023/08/02 10:14:09;;;;;;;9.23;5.13;;;16.70;99.90;;;;;;5130975;27;20043;-80
2023/08/02 10:16:37;;;;;;;10.30;4.93;;;16.70;99.90;;;;;;5136458;27;20035;-80
2023/08/02 10:19:03;;;;;;;10.25;5.72;;;16.70;99.90;;;;;;5129713;27;20039;-80
2023/08/02 10:21:33;;;;;;;10.75;5.35;;;16.70;99.90;;;;;;5138015;27;20476;-80
2023/08/02 10:24:00;;;;;;;8.90;5.85;;;16.70;99.90;;;;;;5139997;27;20039;-80
2023/08/02 10:26:28;;;;;;;7.97;4.22;;;16.70;99.90;;;;;;5138792;27;20087;-79
2023/08/02 10:28:56;;;;;;;9.65;5.28;;;16.70;99.90;;;;;;5117080;27;20470;-79
2023/08/02 10:31:22;;;;;;;8.68;4.07;;;16.70;99.90;;;;;;5120438;27;20061;-80
2023/08/02 10:33:48;;;;;;;6.93;4.07;;;16.80;99.90;;;;;;5116408;27;20074;-80
2023/08/02 10:36:13;;;;;;;8.23;4.63;;;16.80;99.90;;;;;;5119591;27;20486;-80
2023/08/02 10:38:39;;;;;;;7.65;3.97;;;16.80;99.90;;;;;;5144880;27;20035;-80
2023/08/02 10:41:22;;;;;;;8.38;3.92;;;16.80;99.90;;;;;;5116850;27;20335;-80
2023/08/02 10:43:53;;;;;;;6.72;3.75;;;16.90;99.90;;;;;;5138149;27;20126;-80
2023/08/02 10:46:27;;;;;;;6.45;3.63;;;16.90;99.90;;;;;;5112595;28;20047;-80
2023/08/02 10:48:55;;;;;;;6.47;3.00;;;16.90;99.90;;;;;;5118074;27;20046;-80
2023/08/02 10:51:27;;;;;;;7.05;3.50;;;16.90;99.90;;;;;;5140476;27;20109;-82
2023/08/02 10:54:38;;;;;;;5.53;2.92;;;16.90;99.90;;;;;;5136702;27;20038;-81
2023/08/02 10:57:05;;;;;;;4.90;2.40;;;16.90;99.90;;;;;;5114855;27;20074;-81
2023/08/02 10:59:31;;;;;;;5.93;2.70;;;16.90;99.90;;;;;;5115207;27;20039;-81
2023/08/02 11:02:00;;;;;;;6.53;2.90;;;16.90;99.90;;;;;;5116158;27;20070;-81
2023/08/02 11:04:30;;;;;;;6.90;2.72;;;17.00;99.90;;;;;;5132376;27;20039;-81
2023/08/02 11:07:09;;;;;;;5.22;2.47;;;17.00;99.90;;;;;;5131788;27;20128;-81
2023/08/02 11:09:35;;;;;;;3.35;2.03;;;17.00;99.90;;;;;;5130032;27;20031;-81
2023/08/02 11:12:17;;;;;;;3.88;1.95;;;17.00;99.90;;;;;;5117870;27;20359;-80
2023/08/02 11:14:45;;;;;;;4.35;1.77;;;17.10;99.90;;;;;;5139272;27;20109;-81
2023/08/02 11:17:15;;;;;;;4.05;1.63;;;17.10;99.90;;;;;;5134888;27;20125;-81
2023/08/02 11:19:46;;;;;;;3.92;1.70;;;17.10;99.90;;;;;;5135914;27;20029;-80
2023/08/02 11:22:12;;;;;;;2.83;1.25;;;17.20;99.90;;;;;;5137530;27;20878;-80
2023/08/02 11:24:45;;;;;;;4.25;1.50;;;17.10;99.90;;;;;;5140329;27;20062;-80
2023/08/02 11:27:22;;;;;;;2.85;1.52;;;17.10;99.90;;;;;;5143676;27;20037;-80
2023/08/02 11:29:59;;;;;;;3.45;1.20;;;17.10;99.90;;;;;;5116771;27;20031;-80
2023/08/02 11:32:26;;;;;;;3.75;1.55;;;17.10;99.90;;;;;;5131760;27;20031;-80
2023/08/02 11:34:51;;;;;;;2.45;1.20;;;17.10;99.90;;;;;;5139956;27;20024;-81
2023/08/02 11:37:19;;;;;;;2.63;1.17;;;17.10;99.90;;;;;;5118735;27;20042;-81
2023/08/02 11:39:58;;;;;;;2.22;1.15;;;17.20;99.90;;;;;;5133780;27;20031;-81
2023/08/02 11:42:25;;;;;;;9.18;1.25;;;17.20;99.90;;;;;;5132578;27;20107;-81
2023/08/02 11:44:51;;;;;;;5.00;1.40;;;17.20;99.90;;;;;;5137928;27;20114;-80
2023/08/02 11:47:17;;;;;;;2.25;1.10;;;17.30;99.90;;;;;;5114489;27;20035;-81
2023/08/02 11:49:56;;;;;;;2.45;1.10;;;17.30;99.90;;;;;;5134054;27;20038;-81
2023/08/02 11:52:28;;;;;;;2.75;1.25;;;17.40;99.90;;;;;;5140353;27;20027;-81
2023/08/02 11:54:54;;;;;;;2.90;1.35;;;17.60;99.90;;;;;;5120999;27;20035;-81
2023/08/02 11:57:21;;;;;;;3.08;1.20;;;17.80;99.90;;;;;;5116212;27;20059;-81
2023/08/02 11:59:49;;;;;;;2.75;1.02;;;17.90;99.90;;;;;;5138399;27;20085;-81
2023/08/02 12:02:32;;;;;;;1.60;0.70;;;18.10;99.90;;;;;;5135140;27;20091;-81
2023/08/02 12:05:05;;;;;;;1.80;1.00;;;18.20;99.90;;;;;;5116967;27;20050;-81
2023/08/02 12:07:32;;;;;;;1.88;0.93;;;18.40;99.90;;;;;;5135797;27;20031;-81
2023/08/02 12:09:57;;;;;;;1.63;0.80;;;18.50;99.90;;;;;;5133122;27;20045;-81
2023/08/02 12:12:31;;;;;;;1.88;0.70;;;18.70;99.90;;;;;;5133521;27;20039;-81
2023/08/02 12:14:58;;;;;;;1.60;0.80;;;18.80;99.90;;;;;;5135625;27;20042;-83
2023/08/02 12:17:25;;;;;;;2.22;0.98;;;18.80;99.90;;;;;;5141790;27;20524;-82
2023/08/02 12:19:51;;;;;;;1.85;0.90;;;18.80;99.90;;;;;;5114132;27;20033;-81
2023/08/02 12:22:18;;;;;;;2.58;0.80;;;18.90;99.90;;;;;;5136256;27;20493;-81
2023/08/02 12:24:44;;;;;;;1.83;1.10;;;18.90;99.90;;;;;;5138845;27;20046;-82
2023/08/02 12:27:17;;;;;;;1.40;0.85;;;18.90;99.90;;;;;;5137097;27;20036;-82
2023/08/02 12:29:45;;;;;;;1.73;0.90;;;18.80;99.90;;;;;;5141042;27;20038;-81
2023/08/02 12:32:25;;;;;;;3.53;1.13;;;18.70;99.90;;;;;;5133277;27;20122;-81
2023/08/02 12:34:50;;;;;;;2.30;1.38;;;18.80;99.90;;;;;;5115914;27;20156;-81
2023/08/02 12:37:16;;;;;;;1.42;0.88;;;18.70;99.90;;;;;;5136730;27;20646;-82
2023/08/02 12:39:42;;;;;;;2.30;1.30;;;18.70;99.90;;;;;;5140988;27;20062;-81
2023/08/02 12:42:08;;;;;;;4.57;1.75;;;18.60;99.90;;;;;;5140564;27;20031;-79